createdAt,value
2019-02-15T00:00:30.316Z,75.95
2019-02-15T00:01:10.864Z,76.52
2019-02-15T00:01:51.452Z,76.61
2019-02-15T00:02:32.030Z,76.9
2019-02-15T00:03:12.615Z,76.71
2019-02-15T00:03:53.185Z,76.61
2019-02-15T00:04:33.743Z,76.61
2019-02-15T00:05:14.313Z,76.61
2019-02-15T00:05:54.868Z,76.61
2019-02-15T00:06:35.526Z,76.71
2019-02-15T00:07:16.134Z,76.32
2019-02-15T00:07:56.797Z,76.52
2019-02-15T00:08:37.326Z,76.23
2019-02-15T00:09:17.891Z,76.23
2019-02-15T00:09:58.425Z,76.23
2019-02-15T00:10:39.047Z,76.04
2019-02-15T00:11:19.635Z,76.23
2019-02-15T00:12:00.257Z,76.42
2019-02-15T00:12:40.813Z,76.52
2019-02-15T00:13:21.516Z,76.52
2019-02-15T00:14:02.105Z,76.42
2019-02-15T00:14:42.713Z,76.71
2019-02-15T00:15:23.282Z,76.61
2019-02-15T00:16:03.846Z,76.71
2019-02-15T00:16:44.399Z,76.8
2019-02-15T00:17:24.992Z,76.61
2019-02-15T00:18:05.552Z,76.61
2019-02-15T00:18:46.104Z,76.52
2019-02-15T00:19:26.650Z,76.8
2019-02-15T00:20:07.191Z,76.8
2019-02-15T00:20:47.760Z,76.61
2019-02-15T00:21:28.350Z,76.61
2019-02-15T00:22:08.994Z,76.71
2019-02-15T00:22:49.579Z,76.8
2019-02-15T00:23:30.119Z,76.71
2019-02-15T00:24:10.675Z,76.42
2019-02-15T00:24:51.229Z,76.23
2019-02-15T00:25:31.840Z,76.14
2019-02-15T00:26:12.448Z,76.23
2019-02-15T00:26:52.993Z,75.95
2019-02-15T00:27:33.569Z,76.14
2019-02-15T00:28:14.142Z,75.95
2019-02-15T00:28:54.835Z,76.23
2019-02-15T00:29:35.384Z,75.91
2019-02-15T00:30:16.109Z,76.2
2019-02-15T00:30:56.708Z,76.14
2019-02-15T00:31:37.339Z,76.2
2019-02-15T00:32:17.936Z,76.23
2019-02-15T00:32:58.501Z,76.32
2019-02-15T00:33:39.125Z,76.29
2019-02-15T00:34:19.655Z,76.04
2019-02-15T00:35:00.334Z,76.14
2019-02-15T00:35:40.771Z,76.1
2019-02-15T00:36:21.370Z,76.14
2019-02-15T00:37:01.916Z,76.14
2019-02-15T00:37:42.484Z,76.2
2019-02-15T00:38:23.127Z,76.1
2019-02-15T00:39:03.702Z,75.91
2019-02-15T00:39:44.264Z,76.48
2019-02-15T00:40:24.848Z,76.2
2019-02-15T00:41:05.399Z,76.2
2019-02-15T00:41:45.954Z,76.57
2019-02-15T00:42:27.044Z,76.48
2019-02-15T00:43:07.601Z,76.39
2019-02-15T00:43:48.198Z,76.57
2019-02-15T00:44:28.851Z,76.48
2019-02-15T00:45:09.452Z,76.67
2019-02-15T00:45:50.042Z,76.48
2019-02-15T00:46:30.627Z,75.91
2019-02-15T00:47:11.335Z,76.01
2019-02-15T00:47:51.891Z,76.67
2019-02-15T00:48:32.471Z,76.48
2019-02-15T00:49:13.029Z,76.67
2019-02-15T00:49:53.643Z,76.39
2019-02-15T00:50:34.222Z,76.86
2019-02-15T00:51:14.785Z,76.86
2019-02-15T00:51:55.345Z,76.67
2019-02-15T00:52:35.956Z,76.57
2019-02-15T00:53:16.519Z,76.57
2019-02-15T00:53:57.074Z,76.48
2019-02-15T00:54:37.665Z,76.39
2019-02-15T00:55:18.272Z,76.57
2019-02-15T00:55:58.802Z,76.39
2019-02-15T00:56:39.443Z,76.48
2019-02-15T00:57:20.028Z,76.48
2019-02-15T00:58:00.609Z,76.48
2019-02-15T00:58:41.190Z,76.48
2019-02-15T00:59:21.783Z,76.76
2019-02-15T01:00:02.323Z,76.48
2019-02-15T01:00:42.875Z,76.39
2019-02-15T01:01:23.504Z,76.2
2019-02-15T01:02:04.033Z,76.48
2019-02-15T01:02:44.590Z,76.67
2019-02-15T01:03:25.163Z,76.2
2019-02-15T01:04:05.747Z,76.2
2019-02-15T01:04:46.321Z,76.67
2019-02-15T01:05:26.881Z,76.39
2019-02-15T01:06:07.508Z,76.57
2019-02-15T01:06:48.100Z,76.39
2019-02-15T01:07:28.675Z,76.39
2019-02-15T01:08:09.230Z,76.57
2019-02-15T01:08:49.801Z,76.67
2019-02-15T01:09:30.364Z,76.76
2019-02-15T01:10:10.955Z,76.48
2019-02-15T01:10:51.525Z,76.39
2019-02-15T01:11:32.085Z,76.48
2019-02-15T01:12:12.660Z,76.39
2019-02-15T01:12:53.260Z,76.48
2019-02-15T01:13:33.853Z,76.57
2019-02-15T01:14:14.408Z,76.57
2019-02-15T01:14:54.968Z,76.48
2019-02-15T01:15:35.541Z,76.29
2019-02-15T01:16:16.147Z,76.39
2019-02-15T01:16:56.710Z,76.48
2019-02-15T01:17:37.261Z,76.67
2019-02-15T01:18:17.876Z,76.48
2019-02-15T01:18:58.462Z,76.48
2019-02-15T01:19:39.048Z,76.39
2019-02-15T01:20:19.627Z,76.67
2019-02-15T01:21:00.205Z,76.57
2019-02-15T01:21:40.777Z,76.57
2019-02-15T01:22:21.377Z,76.76
2019-02-15T01:23:01.963Z,76.67
2019-02-15T01:23:42.512Z,76.86
2019-02-15T01:24:23.093Z,76.76
2019-02-15T01:25:03.653Z,76.67
2019-02-15T01:25:44.238Z,77.52
2019-02-15T01:26:24.796Z,76.95
2019-02-15T01:27:05.467Z,77.05
2019-02-15T01:27:46.002Z,76.76
2019-02-15T01:28:26.598Z,77.05
2019-02-15T01:29:07.158Z,77.14
2019-02-15T01:29:47.711Z,77.14
2019-02-15T01:30:28.296Z,76.86
2019-02-15T01:31:08.878Z,77.81
2019-02-15T01:31:49.467Z,77.71
2019-02-15T01:32:30.020Z,77.62
2019-02-15T01:33:10.602Z,77.52
2019-02-15T01:33:51.158Z,78
2019-02-15T01:34:31.738Z,77.52
2019-02-15T01:35:12.293Z,77.33
2019-02-15T01:35:52.866Z,77.71
2019-02-15T01:36:33.429Z,77.81
2019-02-15T01:37:14.016Z,77.52
2019-02-15T01:37:54.601Z,77.05
2019-02-15T01:38:35.183Z,77.14
2019-02-15T01:39:15.758Z,76.67
2019-02-15T01:39:56.349Z,76.67
2019-02-15T01:40:36.920Z,77.14
2019-02-15T01:41:17.554Z,77.05
2019-02-15T01:41:58.133Z,77.05
2019-02-15T01:42:38.702Z,77.24
2019-02-15T01:43:19.291Z,77.14
2019-02-15T01:43:59.854Z,77.14
2019-02-15T01:44:40.437Z,76.86
2019-02-15T01:45:20.996Z,77.14
2019-02-15T01:46:01.585Z,77.05
2019-02-15T01:46:42.159Z,76.95
2019-02-15T01:47:22.748Z,77.14
2019-02-15T01:48:03.358Z,77.05
2019-02-15T01:48:43.912Z,77.71
2019-02-15T01:49:24.508Z,77.62
2019-02-15T01:50:05.068Z,77.52
2019-02-15T01:50:45.711Z,77.43
2019-02-15T01:51:26.250Z,77.62
2019-02-15T01:52:06.807Z,77.62
2019-02-15T01:52:47.355Z,77.52
2019-02-15T01:53:27.937Z,77.81
2019-02-15T01:54:08.519Z,77.81
2019-02-15T01:54:49.112Z,77.52
2019-02-15T01:55:29.675Z,77.81
2019-02-15T01:56:10.239Z,77.62
2019-02-15T01:56:50.822Z,77.48
2019-02-15T01:57:31.416Z,77.62
2019-02-15T01:58:11.988Z,77.62
2019-02-15T01:58:52.575Z,77.81
2019-02-15T01:59:33.152Z,77.48
2019-02-15T02:00:13.776Z,77.58
2019-02-15T02:00:54.369Z,77.96
2019-02-15T02:01:34.965Z,78
2019-02-15T02:02:15.546Z,77.9
2019-02-15T02:02:56.133Z,77.86
2019-02-15T02:03:36.735Z,77.96
2019-02-15T02:04:17.286Z,77.77
2019-02-15T02:04:57.837Z,78.15
2019-02-15T02:05:38.405Z,77.96
2019-02-15T02:06:18.999Z,77.86
2019-02-15T02:06:59.596Z,77.86
2019-02-15T02:07:40.143Z,77.77
2019-02-15T02:08:20.692Z,77.86
2019-02-15T02:09:01.296Z,77.86
2019-02-15T02:09:41.868Z,77.86
2019-02-15T02:10:22.438Z,78.15
2019-02-15T02:11:02.995Z,78.43
2019-02-15T02:11:43.582Z,78.53
2019-02-15T02:12:24.126Z,78.15
2019-02-15T02:13:04.682Z,78.43
2019-02-15T02:13:49.505Z,78.24
2019-02-15T02:14:25.798Z,78.53
2019-02-15T02:15:06.369Z,78.34
2019-02-15T02:15:46.920Z,78.53
2019-02-15T02:16:27.481Z,78.34
2019-02-15T02:17:08.050Z,78.43
2019-02-15T02:17:48.611Z,78.53
2019-02-15T02:18:29.193Z,78.24
2019-02-15T02:19:09.771Z,78.43
2019-02-15T02:19:50.343Z,78.43
2019-02-15T02:20:30.894Z,78.34
2019-02-15T02:21:11.485Z,78.24
2019-02-15T02:21:52.034Z,78.43
2019-02-15T02:22:32.604Z,78.43
2019-02-15T02:23:13.177Z,78.34
2019-02-15T02:23:53.761Z,77.86
2019-02-15T02:24:34.361Z,77.67
2019-02-15T02:25:14.927Z,77.77
2019-02-15T02:25:55.501Z,77.96
2019-02-15T02:26:36.058Z,77.86
2019-02-15T02:27:16.627Z,77.86
2019-02-15T02:27:57.175Z,78.15
2019-02-15T02:28:37.740Z,77.86
2019-02-15T02:29:18.307Z,77.96
2019-02-15T02:29:58.889Z,77.86
2019-02-15T02:30:39.459Z,77.86
2019-02-15T02:31:20.024Z,77.96
2019-02-15T02:32:00.581Z,77.96
2019-02-15T02:32:41.137Z,77.86
2019-02-15T02:33:21.683Z,78.34
2019-02-15T02:34:02.240Z,78.53
2019-02-15T02:34:42.789Z,78.43
2019-02-15T02:35:23.343Z,78.15
2019-02-15T02:36:03.905Z,78.53
2019-02-15T02:36:44.465Z,78.24
2019-02-15T02:37:25.056Z,78.24
2019-02-15T02:38:05.640Z,78.43
2019-02-15T02:38:46.209Z,78.05
2019-02-15T02:39:26.771Z,78.34
2019-02-15T02:40:07.333Z,78.05
2019-02-15T02:40:47.885Z,78.91
2019-02-15T02:41:28.438Z,78.81
2019-02-15T02:42:09.684Z,79
2019-02-15T02:42:50.242Z,78.91
2019-02-15T02:43:30.803Z,78.62
2019-02-15T02:44:11.369Z,78.72
2019-02-15T02:44:51.983Z,78.62
2019-02-15T02:45:32.513Z,78.91
2019-02-15T02:46:13.099Z,78.91
2019-02-15T02:46:53.674Z,79
2019-02-15T02:47:34.243Z,78.91
2019-02-15T02:48:14.818Z,78.81
2019-02-15T02:48:55.405Z,78.05
2019-02-15T02:49:35.982Z,78.91
2019-02-15T02:50:16.551Z,78.91
2019-02-15T02:50:57.194Z,78.72
2019-02-15T02:51:37.747Z,78.62
2019-02-15T02:52:18.311Z,78.72
2019-02-15T02:52:58.887Z,78.91
2019-02-15T02:53:39.475Z,79.1
2019-02-15T02:54:20.054Z,78.81
2019-02-15T02:55:00.598Z,78.91
2019-02-15T02:55:41.193Z,78.91
2019-02-15T02:56:21.772Z,78.72
2019-02-15T02:57:02.353Z,78.81
2019-02-15T02:57:42.947Z,78.72
2019-02-15T02:58:23.498Z,78.62
2019-02-15T02:59:04.047Z,78.91
2019-02-15T02:59:44.668Z,78.62
2019-02-15T03:00:33.166Z,78.81
2019-02-15T03:01:05.800Z,78.91
2019-02-15T03:01:46.386Z,78.91
2019-02-15T03:02:26.967Z,79
2019-02-15T03:03:07.563Z,79
2019-02-15T03:03:48.149Z,79
2019-02-15T03:04:28.748Z,78.91
2019-02-15T03:05:09.342Z,79
2019-02-15T03:05:49.936Z,79.1
2019-02-15T03:06:30.490Z,78.91
2019-02-15T03:07:11.043Z,78.91
2019-02-15T03:07:51.606Z,78.81
2019-02-15T03:08:32.159Z,78.81
2019-02-15T03:09:12.743Z,78.53
2019-02-15T03:09:53.295Z,78.81
2019-02-15T03:10:33.892Z,78.72
2019-02-15T03:11:14.467Z,79
2019-02-15T03:11:55.040Z,79
2019-02-15T03:12:35.622Z,78.72
2019-02-15T03:13:16.197Z,78.72
2019-02-15T03:13:56.767Z,78.72
2019-02-15T03:14:37.320Z,78.62
2019-02-15T03:15:17.911Z,78.34
2019-02-15T03:15:58.500Z,78.34
2019-02-15T03:16:39.068Z,78.24
2019-02-15T03:17:19.665Z,78.43
2019-02-15T03:18:00.244Z,78.24
2019-02-15T03:18:40.832Z,78.43
2019-02-15T03:19:21.385Z,78.34
2019-02-15T03:20:01.958Z,78.43
2019-02-15T03:20:42.504Z,78.24
2019-02-15T03:21:23.071Z,78.43
2019-02-15T03:22:03.692Z,78.43
2019-02-15T03:22:44.270Z,78.43
2019-02-15T03:23:24.838Z,78.43
2019-02-15T03:24:05.399Z,78.34
2019-02-15T03:24:45.947Z,78.24
2019-02-15T03:25:26.551Z,78.24
2019-02-15T03:26:07.119Z,78.24
2019-02-15T03:26:47.708Z,78.05
2019-02-15T03:27:28.291Z,78.34
2019-02-15T03:28:08.860Z,78.34
2019-02-15T03:28:49.412Z,78.24
2019-02-15T03:29:29.984Z,78.34
2019-02-15T03:30:10.559Z,78.24
2019-02-15T03:30:51.152Z,78.34
2019-02-15T03:31:31.704Z,78.43
2019-02-15T03:32:12.260Z,78.15
2019-02-15T03:32:52.864Z,78.43
2019-02-15T03:33:33.527Z,78.43
2019-02-15T03:34:14.079Z,78.62
2019-02-15T03:34:54.653Z,78.72
2019-02-15T03:35:35.208Z,78.91
2019-02-15T03:36:15.773Z,79.1
2019-02-15T03:36:56.309Z,78.81
2019-02-15T03:37:36.871Z,78.81
2019-02-15T03:38:17.436Z,78.87
2019-02-15T03:38:58.001Z,78.72
2019-02-15T03:39:38.551Z,78.53
2019-02-15T03:40:19.132Z,78.72
2019-02-15T03:40:59.722Z,78.72
2019-02-15T03:41:40.284Z,78.72
2019-02-15T03:42:20.842Z,78.81
2019-02-15T03:43:01.412Z,78.81
2019-02-15T03:43:41.973Z,78.81
2019-02-15T03:44:22.904Z,78.81
2019-02-15T03:45:03.109Z,78.77
2019-02-15T03:45:43.634Z,78.77
2019-02-15T03:46:24.206Z,78.77
2019-02-15T03:47:04.747Z,79
2019-02-15T03:47:45.299Z,78.81
2019-02-15T03:48:25.867Z,78.39
2019-02-15T03:49:06.443Z,78.58
2019-02-15T03:49:46.994Z,78.67
2019-02-15T03:50:27.597Z,78.67
2019-02-15T03:51:08.161Z,78.58
2019-02-15T03:51:48.721Z,78.67
2019-02-15T03:52:29.304Z,78.87
2019-02-15T03:53:09.873Z,78.39
2019-02-15T03:53:50.434Z,78.67
2019-02-15T03:54:30.984Z,78.58
2019-02-15T03:55:11.552Z,78.77
2019-02-15T03:55:52.135Z,78.77
2019-02-15T03:56:32.689Z,78.87
2019-02-15T03:57:13.238Z,78.87
2019-02-15T03:57:53.823Z,79.15
2019-02-15T03:58:34.404Z,78.87
2019-02-15T03:59:15.013Z,79.06
2019-02-15T03:59:55.572Z,78.87
2019-02-15T04:00:36.152Z,78.77
2019-02-15T04:01:16.726Z,78.77
2019-02-15T04:01:57.276Z,78.77
2019-02-15T04:02:37.850Z,78.58
2019-02-15T04:03:18.401Z,78.87
2019-02-15T04:03:58.970Z,78.67
2019-02-15T04:04:39.557Z,78.49
2019-02-15T04:05:20.153Z,78.77
2019-02-15T04:06:00.704Z,78.49
2019-02-15T04:06:41.275Z,78.58
2019-02-15T04:07:21.843Z,78.58
2019-02-15T04:08:02.414Z,78.58
2019-02-15T04:08:43.009Z,78.77
2019-02-15T04:09:23.553Z,78.77
2019-02-15T04:10:04.160Z,78.87
2019-02-15T04:10:44.741Z,79.06
2019-02-15T04:11:25.296Z,79.06
2019-02-15T04:12:05.862Z,79.06
2019-02-15T04:12:46.407Z,79.06
2019-02-15T04:13:26.968Z,78.77
2019-02-15T04:14:07.550Z,78.96
2019-02-15T04:14:48.125Z,78.87
2019-02-15T04:15:28.697Z,78.96
2019-02-15T04:16:09.247Z,78.87
2019-02-15T04:16:49.800Z,78.96
2019-02-15T04:17:30.387Z,78.96
2019-02-15T04:18:10.966Z,79.25
2019-02-15T04:18:51.551Z,79.06
2019-02-15T04:19:32.129Z,78.87
2019-02-15T04:20:12.706Z,79.06
2019-02-15T04:20:53.276Z,79.15
2019-02-15T04:21:33.856Z,78.96
2019-02-15T04:22:14.426Z,79.06
2019-02-15T04:22:54.984Z,79.25
2019-02-15T04:23:35.568Z,79.25
2019-02-15T04:24:16.126Z,78.87
2019-02-15T04:24:56.692Z,79.06
2019-02-15T04:25:37.249Z,79.34
2019-02-15T04:26:17.889Z,78.96
2019-02-15T04:26:58.456Z,79.06
2019-02-15T04:27:39.010Z,78.96
2019-02-15T04:28:19.563Z,79.15
2019-02-15T04:29:00.138Z,79.15
2019-02-15T04:29:40.696Z,78.96
2019-02-15T04:30:21.236Z,79.44
2019-02-15T04:31:01.786Z,79.25
2019-02-15T04:31:42.357Z,79.25
2019-02-15T04:32:22.918Z,79.53
2019-02-15T04:33:03.482Z,79.82
2019-02-15T04:33:44.058Z,79.91
2019-02-15T04:34:24.625Z,80
2019-02-15T04:35:05.176Z,79.91
2019-02-15T04:35:45.739Z,79.44
2019-02-15T04:36:26.325Z,79.15
2019-02-15T04:37:06.890Z,78.67
2019-02-15T04:37:47.456Z,79.25
2019-02-15T04:38:28.011Z,78.77
2019-02-15T04:39:08.571Z,78.49
2019-02-15T04:39:49.124Z,78.87
2019-02-15T04:40:29.693Z,78.77
2019-02-15T04:41:10.261Z,78.77
2019-02-15T04:41:50.843Z,78.58
2019-02-15T04:42:31.393Z,78.77
2019-02-15T04:43:11.953Z,78.58
2019-02-15T04:43:52.523Z,78.58
2019-02-15T04:44:42.251Z,78.39
2019-02-15T04:45:13.632Z,78.87
2019-02-15T04:45:54.206Z,78.58
2019-02-15T04:46:34.780Z,78.58
2019-02-15T04:47:15.341Z,78.77
2019-02-15T04:47:55.923Z,78.96
2019-02-15T04:48:36.501Z,78.77
2019-02-15T04:49:17.062Z,79.25
2019-02-15T04:49:57.643Z,78.87
2019-02-15T04:50:38.178Z,79.06
2019-02-15T04:51:18.723Z,78.96
2019-02-15T04:51:59.291Z,79.15
2019-02-15T04:52:39.843Z,78.96
2019-02-15T04:53:20.408Z,79.15
2019-02-15T04:54:00.969Z,79.06
2019-02-15T04:54:41.540Z,78.96
2019-02-15T04:55:22.088Z,79.06
2019-02-15T04:56:02.674Z,79.15
2019-02-15T04:56:43.238Z,79.06
2019-02-15T04:57:23.780Z,79.06
2019-02-15T04:58:04.374Z,78.77
2019-02-15T04:58:44.925Z,78.96
2019-02-15T04:59:25.489Z,78.96
2019-02-15T05:00:06.045Z,78.77
2019-02-15T05:00:46.615Z,79.34
2019-02-15T05:01:27.188Z,79.53
2019-02-15T05:02:07.752Z,79.53
2019-02-15T05:02:48.302Z,79.06
2019-02-15T05:03:28.845Z,78.96
2019-02-15T05:04:09.405Z,78.87
2019-02-15T05:04:49.977Z,78.77
2019-02-15T05:05:30.596Z,79.63
2019-02-15T05:06:11.132Z,79.34
2019-02-15T05:06:51.730Z,79.34
2019-02-15T05:07:32.245Z,79.15
2019-02-15T05:08:12.812Z,79.25
2019-02-15T05:08:53.389Z,79.25
2019-02-15T05:09:33.936Z,79.25
2019-02-15T05:10:14.491Z,79.15
2019-02-15T05:10:55.129Z,79.15
2019-02-15T05:11:35.639Z,79.34
2019-02-15T05:12:16.207Z,79.63
2019-02-15T05:12:56.793Z,79.63
2019-02-15T05:13:37.375Z,79.15
2019-02-15T05:14:17.991Z,79.25
2019-02-15T05:14:58.550Z,79.44
2019-02-15T05:15:39.154Z,79.25
2019-02-15T05:16:19.732Z,79.25
2019-02-15T05:17:00.307Z,79.25
2019-02-15T05:17:40.926Z,79.53
2019-02-15T05:18:21.472Z,79.53
2019-02-15T05:19:02.050Z,79.72
2019-02-15T05:19:42.642Z,79.63
2019-02-15T05:20:23.220Z,79.15
2019-02-15T05:21:03.813Z,79.72
2019-02-15T05:21:44.396Z,79.63
2019-02-15T05:22:24.968Z,79.15
2019-02-15T05:23:05.569Z,79.15
2019-02-15T05:23:46.156Z,79.53
2019-02-15T05:24:26.727Z,79.34
2019-02-15T05:25:07.322Z,79.25
2019-02-15T05:25:47.897Z,79.25
2019-02-15T05:26:28.478Z,79.34
2019-02-15T05:27:09.040Z,79.25
2019-02-15T05:27:49.595Z,79.34
2019-02-15T05:28:30.178Z,79.53
2019-02-15T05:29:10.732Z,80.1
2019-02-15T05:29:51.350Z,79.91
2019-02-15T05:30:31.912Z,80.19
2019-02-15T05:31:12.480Z,79.53
2019-02-15T05:31:53.035Z,79.44
2019-02-15T05:32:33.641Z,79.25
2019-02-15T05:33:14.210Z,79.25
2019-02-15T05:33:54.786Z,78.96
2019-02-15T05:34:35.341Z,78.87
2019-02-15T05:35:15.945Z,78.67
2019-02-15T05:35:56.522Z,78.58
2019-02-15T05:36:37.059Z,78.67
2019-02-15T05:37:17.600Z,78.87
2019-02-15T05:37:58.163Z,79.44
2019-02-15T05:38:41.002Z,79.15
2019-02-15T05:39:19.291Z,79.44
2019-02-15T05:39:59.874Z,79.25
2019-02-15T05:40:40.431Z,79.15
2019-02-15T05:41:20.992Z,79.15
2019-02-15T05:42:01.578Z,79.25
2019-02-15T05:42:42.516Z,79.25
2019-02-15T05:43:23.088Z,79.06
2019-02-15T05:44:03.669Z,79.25
2019-02-15T05:44:44.235Z,79.15
2019-02-15T05:45:24.966Z,79.34
2019-02-15T05:46:05.526Z,79.44
2019-02-15T05:46:46.108Z,79.63
2019-02-15T05:47:26.666Z,79.63
2019-02-15T05:48:07.226Z,79.63
2019-02-15T05:48:47.773Z,79.63
2019-02-15T05:49:28.374Z,79.34
2019-02-15T05:50:08.921Z,79.53
2019-02-15T05:50:49.483Z,78.96
2019-02-15T05:51:30.053Z,78.87
2019-02-15T05:52:10.614Z,78.96
2019-02-15T05:52:51.165Z,79.25
2019-02-15T05:53:31.738Z,78.96
2019-02-15T05:54:12.296Z,78.87
2019-02-15T05:54:52.835Z,79.06
2019-02-15T05:55:33.382Z,79.25
2019-02-15T05:56:13.930Z,78.96
2019-02-15T05:56:54.481Z,79.25
2019-02-15T05:57:35.052Z,79.06
2019-02-15T05:58:15.632Z,78.67
2019-02-15T05:58:56.184Z,78.96
2019-02-15T05:59:36.801Z,78.96
2019-02-15T06:00:17.359Z,78.87
2019-02-15T06:00:57.932Z,79.44
2019-02-15T06:01:38.500Z,79.53
2019-02-15T06:02:19.050Z,79.63
2019-02-15T06:02:59.605Z,78.96
2019-02-15T06:03:40.179Z,78.96
2019-02-15T06:04:20.752Z,78.58
2019-02-15T06:05:01.299Z,79.53
2019-02-15T06:05:41.890Z,79.53
2019-02-15T06:06:22.454Z,79.06
2019-02-15T06:07:03.017Z,78.96
2019-02-15T06:07:43.577Z,78.77
2019-02-15T06:08:24.159Z,78.96
2019-02-15T06:09:04.701Z,79.34
2019-02-15T06:09:45.289Z,79.25
2019-02-15T06:10:25.844Z,79.06
2019-02-15T06:11:08.216Z,79.44
2019-02-15T06:11:47.256Z,79.25
2019-02-15T06:12:27.802Z,79.06
2019-02-15T06:13:08.371Z,79.34
2019-02-15T06:13:48.954Z,79.06
2019-02-15T06:14:29.521Z,79.44
2019-02-15T06:15:14.945Z,79.15
2019-02-15T06:15:50.641Z,79.34
2019-02-15T06:16:31.214Z,79.44
2019-02-15T06:17:11.773Z,79.15
2019-02-15T06:17:52.343Z,79.53
2019-02-15T06:18:32.906Z,79.34
2019-02-15T06:19:13.472Z,79.34
2019-02-15T06:19:54.021Z,79.82
2019-02-15T06:20:34.577Z,79.91
2019-02-15T06:21:15.181Z,79.72
2019-02-15T06:21:55.732Z,80.19
2019-02-15T06:22:36.352Z,80
2019-02-15T06:23:16.974Z,80
2019-02-15T06:23:57.545Z,80.19
2019-02-15T06:24:38.086Z,80.29
2019-02-15T06:25:18.677Z,80.38
2019-02-15T06:25:59.252Z,80.29
2019-02-15T06:26:39.808Z,80.19
2019-02-15T06:27:20.385Z,80
2019-02-15T06:28:00.975Z,79.82
2019-02-15T06:28:41.510Z,79.91
2019-02-15T06:29:22.048Z,79.82
2019-02-15T06:30:02.601Z,80.1
2019-02-15T06:30:43.149Z,79.91
2019-02-15T06:31:23.699Z,79.91
2019-02-15T06:32:04.263Z,80.57
2019-02-15T06:32:44.854Z,80.1
2019-02-15T06:33:25.411Z,79.91
2019-02-15T06:34:05.976Z,80.29
2019-02-15T06:34:46.544Z,80.1
2019-02-15T06:35:27.105Z,80.19
2019-02-15T06:36:07.666Z,80.19
2019-02-15T06:36:48.230Z,80.29
2019-02-15T06:37:28.787Z,80.19
2019-02-15T06:38:09.363Z,80
2019-02-15T06:38:49.928Z,80
2019-02-15T06:39:30.499Z,80.19
2019-02-15T06:40:11.086Z,80.19
2019-02-15T06:40:51.674Z,80
2019-02-15T06:41:32.302Z,80.38
2019-02-15T06:42:13.242Z,80.19
2019-02-15T06:42:53.889Z,80.67
2019-02-15T06:43:34.562Z,80.29
2019-02-15T06:44:15.192Z,80.57
2019-02-15T06:44:55.764Z,79.91
2019-02-15T06:45:36.315Z,80.57
2019-02-15T06:46:16.903Z,80.95
2019-02-15T06:46:57.503Z,80.67
2019-02-15T06:47:38.069Z,80.95
2019-02-15T06:48:18.630Z,80.95
2019-02-15T06:48:59.215Z,80.86
2019-02-15T06:49:39.789Z,80.95
2019-02-15T06:50:20.361Z,80.76
2019-02-15T06:51:00.963Z,80.57
2019-02-15T06:51:41.528Z,80.29
2019-02-15T06:52:22.220Z,80.48
2019-02-15T06:53:02.755Z,80.57
2019-02-15T06:53:43.371Z,80.38
2019-02-15T06:54:23.928Z,80.19
2019-02-15T06:55:04.523Z,80.67
2019-02-15T06:55:45.054Z,80.1
2019-02-15T06:56:25.643Z,80.1
2019-02-15T06:57:06.196Z,80.95
2019-02-15T06:57:46.954Z,80.48
2019-02-15T06:58:27.341Z,80.57
2019-02-15T06:59:07.913Z,79.91
2019-02-15T06:59:48.527Z,80.1
2019-02-15T07:00:29.098Z,80.48
2019-02-15T07:01:09.647Z,80.29
2019-02-15T07:01:50.528Z,80.19
2019-02-15T07:02:32.889Z,80.48
2019-02-15T07:03:14.363Z,80.38
2019-02-15T07:03:55.587Z,80.48
2019-02-15T07:04:36.841Z,80.67
2019-02-15T07:05:18.269Z,80.57
2019-02-15T07:05:59.410Z,80.19
2019-02-15T07:06:40.370Z,80.29
2019-02-15T07:07:21.040Z,80.38
2019-02-15T07:08:01.603Z,80.57
2019-02-15T07:08:42.186Z,80.48
2019-02-15T07:09:22.755Z,80.48
2019-02-15T07:10:03.497Z,80.76
2019-02-15T07:10:44.211Z,80.38
2019-02-15T07:11:24.881Z,80.1
2019-02-15T07:12:05.729Z,79.82
2019-02-15T07:12:46.323Z,79.82
2019-02-15T07:13:26.894Z,80.29
2019-02-15T07:14:07.474Z,80
2019-02-15T07:14:48.085Z,80
2019-02-15T07:15:33.559Z,80.1
2019-02-15T07:16:09.262Z,80.38
2019-02-15T07:16:49.855Z,80.19
2019-02-15T07:17:30.418Z,80.19
2019-02-15T07:18:10.980Z,80
2019-02-15T07:18:52.037Z,79.91
2019-02-15T07:19:33.904Z,80.38
2019-02-15T07:20:14.816Z,80.1
2019-02-15T07:20:55.367Z,80.19
2019-02-15T07:21:35.927Z,80.19
2019-02-15T07:22:16.731Z,80.19
2019-02-15T07:22:57.915Z,80.38
2019-02-15T07:23:39.065Z,80.38
2019-02-15T07:24:19.902Z,80.1
2019-02-15T07:25:00.872Z,79.91
2019-02-15T07:25:41.553Z,80
2019-02-15T07:26:22.452Z,79.72
2019-02-15T07:27:03.080Z,80
2019-02-15T07:27:43.643Z,79.91
2019-02-15T07:28:24.198Z,79.91
2019-02-15T07:29:04.790Z,80
2019-02-15T07:29:45.482Z,80
2019-02-15T07:30:26.141Z,79.72
2019-02-15T07:31:06.676Z,80.1
2019-02-15T07:31:47.246Z,80
2019-02-15T07:32:27.933Z,79.44
2019-02-15T07:33:08.501Z,79.44
2019-02-15T07:33:49.074Z,79.53
2019-02-15T07:34:29.628Z,79.15
2019-02-15T07:35:10.194Z,79.72
2019-02-15T07:35:50.785Z,79.34
2019-02-15T07:36:31.339Z,79.25
2019-02-15T07:37:12.060Z,79.44
2019-02-15T07:37:52.777Z,79.34
2019-02-15T07:38:33.463Z,79.53
2019-02-15T07:39:14.178Z,79.53
2019-02-15T07:39:54.727Z,79.53
2019-02-15T07:40:35.298Z,79.15
2019-02-15T07:41:15.859Z,79.15
2019-02-15T07:41:56.545Z,79.25
2019-02-15T07:42:37.128Z,79.25
2019-02-15T07:43:18.358Z,79.34
2019-02-15T07:43:59.725Z,78.67
2019-02-15T07:44:40.945Z,78.96
2019-02-15T07:45:22.693Z,78.96
2019-02-15T07:46:02.252Z,78.87
2019-02-15T07:46:42.999Z,78.96
2019-02-15T07:47:23.558Z,78.77
2019-02-15T07:48:04.116Z,78.77
2019-02-15T07:48:44.708Z,78.87
2019-02-15T07:49:27.023Z,79.15
2019-02-15T07:50:06.015Z,79.15
2019-02-15T07:50:48.534Z,79.25
2019-02-15T07:51:29.278Z,79.15
2019-02-15T07:52:09.920Z,78.87
2019-02-15T07:52:50.869Z,78.81
2019-02-15T07:53:32.194Z,78.77
2019-02-15T07:54:15.379Z,78.91
2019-02-15T07:54:56.537Z,78.58
2019-02-15T07:55:37.684Z,78.72
2019-02-15T07:56:18.382Z,78.81
2019-02-15T07:56:59.147Z,78.53
2019-02-15T07:57:39.925Z,78.81
2019-02-15T07:58:21.134Z,78.81
2019-02-15T07:59:02.208Z,78.81
2019-02-15T07:59:43.486Z,78.91
2019-02-15T08:00:24.420Z,78.91
2019-02-15T08:01:05.568Z,78.91
2019-02-15T08:01:48.066Z,78.72
2019-02-15T08:02:29.882Z,79.1
2019-02-15T08:03:12.847Z,78.81
2019-02-15T08:03:53.609Z,79.1
2019-02-15T08:04:34.227Z,79
2019-02-15T08:05:14.791Z,78.81
2019-02-15T08:05:55.360Z,78.62
2019-02-15T08:06:35.920Z,78.34
2019-02-15T08:07:16.488Z,78.43
2019-02-15T08:07:57.041Z,78.24
2019-02-15T08:08:37.617Z,78.24
2019-02-15T08:09:18.174Z,78.24
2019-02-15T08:09:58.761Z,78.34
2019-02-15T08:10:39.576Z,78.24
2019-02-15T08:11:19.881Z,78.43
2019-02-15T08:12:00.439Z,78.62
2019-02-15T08:12:41.014Z,77.67
2019-02-15T08:13:21.586Z,78.53
2019-02-15T08:14:02.160Z,77.86
2019-02-15T08:14:42.723Z,77.96
2019-02-15T08:15:23.285Z,77.86
2019-02-15T08:16:03.876Z,77.58
2019-02-15T08:16:44.435Z,77.58
2019-02-15T08:17:25.041Z,77.48
2019-02-15T08:18:05.631Z,77.71
2019-02-15T08:18:46.189Z,77.9
2019-02-15T08:19:26.749Z,77.9
2019-02-15T08:20:07.306Z,78.28
2019-02-15T08:20:48.057Z,79.08
2019-02-15T08:21:28.388Z,78.42
2019-02-15T08:22:08.954Z,78.08
2019-02-15T08:22:49.517Z,77.07
2019-02-15T08:23:30.100Z,75.02
2019-02-15T08:24:11.082Z,73.4
2019-02-15T08:24:52.119Z,71.53
2019-02-15T08:25:33.089Z,69.38
2019-02-15T08:26:13.977Z,67.32
2019-02-15T08:26:55.079Z,65.83
2019-02-15T08:27:35.950Z,64.02
2019-02-15T08:28:16.931Z,62.43
2019-02-15T08:28:57.916Z,60.17
2019-02-15T08:29:38.489Z,58.07
2019-02-15T08:30:21.915Z,57.92
2019-02-15T08:31:01.420Z,56.67
2019-02-15T08:31:42.057Z,55.46
2019-02-15T08:32:22.839Z,54.44
2019-02-15T08:33:03.592Z,53
2019-02-15T08:33:44.307Z,51.98
2019-02-15T08:34:25.105Z,51.41
2019-02-15T08:35:05.674Z,50.35
2019-02-15T08:35:46.293Z,49.9
2019-02-15T08:36:26.884Z,49.33
2019-02-15T08:37:07.451Z,48.47
2019-02-15T08:37:48.066Z,47.82
2019-02-15T08:38:28.610Z,47.44
2019-02-15T08:39:09.173Z,46.77
2019-02-15T08:39:49.730Z,46.3
2019-02-15T08:40:30.366Z,45.34
2019-02-15T08:41:10.942Z,45.55
2019-02-15T08:42:01.146Z,44.98
2019-02-15T08:42:32.157Z,44.4
2019-02-15T08:43:12.748Z,44.4
2019-02-15T08:43:53.331Z,43.63
2019-02-15T08:44:33.907Z,43.92
2019-02-15T08:45:14.504Z,43.92
2019-02-15T08:46:00.675Z,43.37